createdAt,value
2019-03-18T00:02:59.204Z,0.63
2019-03-18T00:07:53.793Z,0.47
2019-03-18T00:12:48.442Z,0.50
2019-03-18T00:17:43.113Z,0.77
2019-03-18T00:22:37.693Z,0.40
2019-03-18T00:27:32.301Z,0.33
2019-03-18T00:32:26.887Z,0.83
2019-03-18T00:37:21.479Z,0.53
2019-03-18T00:42:16.070Z,0.67
2019-03-18T00:47:10.666Z,0.60
2019-03-18T00:52:05.317Z,0.70
2019-03-18T00:56:59.911Z,0.63
2019-03-18T01:01:54.504Z,0.60
2019-03-18T01:06:49.107Z,1.17
2019-03-18T01:11:43.696Z,0.70
2019-03-18T01:16:38.304Z,1.00
2019-03-18T01:21:32.883Z,0.87
2019-03-18T01:26:27.479Z,0.73
2019-03-18T01:31:22.074Z,0.77
2019-03-18T01:36:16.655Z,0.83
2019-03-18T01:41:11.252Z,0.50
2019-03-18T01:46:05.913Z,0.50
2019-03-18T01:51:00.519Z,0.60
2019-03-18T01:55:55.116Z,0.43
2019-03-18T02:00:49.700Z,0.60
2019-03-18T02:05:44.289Z,0.60
2019-03-18T02:10:38.888Z,0.50
2019-03-18T02:15:33.480Z,0.33
2019-03-18T02:20:28.214Z,0.77
2019-03-18T02:25:22.812Z,0.40
2019-03-18T02:30:19.379Z,0.57
2019-03-18T02:35:14.038Z,0.50
2019-03-18T02:40:11.723Z,0.50
2019-03-18T02:45:11.883Z,0.57
2019-03-18T02:50:08.537Z,0.43
2019-03-18T02:55:03.254Z,0.47
2019-03-18T02:59:57.844Z,0.50
2019-03-18T03:04:52.447Z,0.47
2019-03-18T03:09:47.084Z,0.70
2019-03-18T03:14:41.678Z,0.70
2019-03-18T03:19:36.267Z,0.60
2019-03-18T03:24:30.881Z,1.57
2019-03-18T03:29:25.562Z,1.00
2019-03-18T03:34:20.160Z,0.70
2019-03-18T03:39:14.763Z,0.80
2019-03-18T03:44:09.343Z,0.80
2019-03-18T03:49:04.010Z,1.10
2019-03-18T03:53:58.672Z,1.10
2019-03-18T03:58:53.384Z,1.10
2019-03-18T04:03:48.115Z,0.80
2019-03-18T04:08:42.775Z,1.00
2019-03-18T04:13:37.368Z,0.90
2019-03-18T04:18:31.944Z,1.03
2019-03-18T04:23:26.551Z,0.90
2019-03-18T04:28:21.151Z,1.10
2019-03-18T04:33:15.728Z,1.23
2019-03-18T04:38:10.324Z,1.10
2019-03-18T04:43:04.911Z,1.10
2019-03-18T04:47:59.537Z,1.10
2019-03-18T04:52:54.104Z,1.20
2019-03-18T04:57:48.700Z,1.60
2019-03-18T05:02:43.293Z,1.37
2019-03-18T05:07:37.966Z,1.60
2019-03-18T05:12:32.557Z,1.80
2019-03-18T05:17:27.227Z,1.43
2019-03-18T05:22:21.815Z,1.10
2019-03-18T05:27:16.407Z,1.70
2019-03-18T05:32:11.016Z,1.57
2019-03-18T05:37:05.611Z,1.40
2019-03-18T05:42:00.192Z,1.80
2019-03-18T05:46:54.799Z,1.63
2019-03-18T05:51:49.394Z,1.70
2019-03-18T05:56:44.081Z,2.00
2019-03-18T06:01:38.663Z,1.77
2019-03-18T06:06:33.243Z,1.57
2019-03-18T06:11:27.856Z,2.00
2019-03-18T06:16:22.459Z,1.83
2019-03-18T06:21:17.071Z,2.20
2019-03-18T06:26:11.639Z,2.37
2019-03-18T06:31:06.229Z,2.40
2019-03-18T06:36:00.838Z,3.70
2019-03-18T06:40:55.444Z,3.13
2019-03-18T06:45:50.028Z,2.00
2019-03-18T06:50:44.724Z,2.70
2019-03-18T06:55:42.312Z,1.80
2019-03-18T07:00:37.250Z,1.87
2019-03-18T07:05:32.040Z,2.67
2019-03-18T07:10:27.048Z,2.20
2019-03-18T07:15:21.974Z,1.60
2019-03-18T07:20:16.974Z,1.40
2019-03-18T07:25:12.676Z,1.40
2019-03-18T07:30:16.323Z,1.20
2019-03-18T07:35:11.406Z,1.30
2019-03-18T07:40:15.611Z,1.30
2019-03-18T07:45:15.461Z,1.40
2019-03-18T07:50:14.617Z,1.33
2019-03-18T07:55:10.412Z,1.23
2019-03-18T08:00:12.437Z,1.13
2019-03-18T08:05:09.978Z,5.87
2019-03-18T08:10:07.118Z,1.17
2019-03-18T08:15:01.714Z,1.07
2019-03-18T08:19:56.619Z,0.80
2019-03-18T08:24:51.223Z,0.67
2019-03-18T08:29:45.834Z,0.90
2019-03-18T08:34:40.419Z,1.07
2019-03-18T08:39:35.199Z,0.80
2019-03-18T08:44:29.801Z,0.60
2019-03-18T08:49:24.403Z,0.70
2019-03-18T08:54:19.016Z,0.80
2019-03-18T08:59:13.599Z,0.80
2019-03-18T09:04:11.712Z,0.90
2019-03-18T09:09:14.424Z,0.90
2019-03-18T09:14:10.652Z,1.20
2019-03-18T09:19:09.000Z,0.60
2019-03-18T09:24:02.873Z,0.70
2019-03-18T09:28:57.594Z,0.40
2019-03-18T09:33:52.325Z,1.10
2019-03-18T09:38:47.008Z,0.90
2019-03-18T09:43:42.262Z,0.80
2019-03-18T09:48:38.618Z,0.87
2019-03-18T09:53:33.250Z,1.17
2019-03-18T09:58:27.925Z,0.90
2019-03-18T10:03:22.857Z,1.20
2019-03-18T10:08:17.619Z,0.63
2019-03-18T10:13:12.230Z,1.40
2019-03-18T10:18:07.003Z,0.70
2019-03-18T10:23:02.968Z,1.20
2019-03-18T10:27:57.925Z,1.17
2019-03-18T10:32:52.541Z,0.80
2019-03-18T10:37:47.756Z,1.37
2019-03-18T10:42:45.086Z,1.10
2019-03-18T10:47:39.700Z,1.00
2019-03-18T10:52:34.616Z,1.10
2019-03-18T10:57:29.240Z,1.07
2019-03-18T11:02:23.860Z,1.37
2019-03-18T11:07:18.487Z,1.67
2019-03-18T11:12:13.088Z,1.20
2019-03-18T11:17:07.705Z,1.40
2019-03-18T11:22:04.782Z,3.50
2019-03-18T11:26:59.460Z,2.30
2019-03-18T11:31:54.292Z,1.33
2019-03-18T11:36:48.867Z,0.80
2019-03-18T11:41:43.509Z,1.17
2019-03-18T11:46:40.470Z,0.87
2019-03-18T11:51:35.390Z,1.07
2019-03-18T11:56:30.589Z,1.17
2019-03-18T12:01:25.310Z,1.20
2019-03-18T12:06:19.933Z,1.00
2019-03-18T12:11:14.999Z,1.50
2019-03-18T12:16:10.134Z,0.97
2019-03-18T12:21:05.354Z,0.80
2019-03-18T12:26:00.072Z,1.00
2019-03-18T12:30:54.677Z,1.13
2019-03-18T12:35:55.410Z,1.23
2019-03-18T12:40:54.955Z,1.30
2019-03-18T12:45:49.617Z,1.00
2019-03-18T12:50:55.680Z,1.00
2019-03-18T12:55:40.631Z,0.93
2019-03-18T13:00:37.580Z,1.00
2019-03-18T13:05:32.456Z,1.10
2019-03-18T13:10:27.377Z,0.87
2019-03-18T13:15:22.667Z,0.80
2019-03-18T13:20:22.554Z,1.20
2019-03-18T13:25:17.229Z,1.10
2019-03-18T13:30:18.183Z,1.37
2019-03-18T13:35:13.010Z,0.90
2019-03-18T13:40:14.543Z,1.00
2019-03-18T13:45:18.793Z,1.90
2019-03-18T13:50:19.427Z,1.30
2019-03-18T13:55:14.633Z,2.03
2019-03-18T14:00:20.997Z,1.37
2019-03-18T14:05:16.843Z,3.83
2019-03-18T14:10:17.847Z,1.90
2019-03-18T14:15:19.080Z,1.13
2019-03-18T14:20:19.941Z,0.60
2019-03-18T14:25:15.157Z,1.00
2019-03-18T14:30:23.855Z,1.27
2019-03-18T14:35:21.275Z,0.60
2019-03-18T14:40:20.980Z,0.60
2019-03-18T14:45:21.366Z,0.70
2019-03-18T14:50:17.663Z,1.00
2019-03-18T14:55:14.785Z,1.03
2019-03-18T15:00:27.195Z,0.90
2019-03-18T15:05:21.933Z,0.80
2019-03-18T15:10:23.476Z,2.60
2019-03-18T15:15:19.859Z,1.83
2019-03-18T15:20:17.312Z,1.30
2019-03-18T15:25:16.222Z,0.70
2019-03-18T15:30:20.237Z,0.80
2019-03-18T15:35:16.990Z,1.10
2019-03-18T15:40:27.284Z,1.17
2019-03-18T15:45:23.276Z,1.10
2019-03-18T15:50:26.659Z,0.80
2019-03-18T15:55:23.857Z,0.70
2019-03-18T16:00:29.039Z,1.90
2019-03-18T16:05:23.718Z,1.20
2019-03-18T16:10:20.248Z,1.27
2019-03-18T16:15:16.910Z,0.77
2019-03-18T16:20:18.418Z,1.03
2019-03-18T16:25:13.644Z,1.63
2019-03-18T16:30:22.260Z,1.67
2019-03-18T16:35:18.090Z,1.63
2019-03-18T16:40:16.586Z,1.47
2019-03-18T16:45:17.272Z,2.50
2019-03-18T16:50:21.075Z,1.20
2019-03-18T16:55:15.879Z,1.30
2019-03-18T17:00:17.579Z,0.57
2019-03-18T17:05:12.321Z,0.80
2019-03-18T17:10:15.683Z,0.60
2019-03-18T17:15:13.505Z,0.70
2019-03-18T17:20:12.041Z,0.60
2019-03-18T17:25:11.324Z,0.97
2019-03-18T17:30:13.162Z,1.00
2019-03-18T17:35:08.743Z,1.10
2019-03-18T17:40:03.918Z,0.80
2019-03-18T17:44:58.538Z,2.13
2019-03-18T17:49:54.887Z,0.67
2019-03-18T17:54:49.487Z,0.70
2019-03-18T17:59:44.098Z,0.70
2019-03-18T18:04:38.760Z,0.50
2019-03-18T18:09:33.360Z,0.50
2019-03-18T18:14:27.939Z,0.57
2019-03-18T18:19:22.531Z,0.40
2019-03-18T18:24:17.127Z,0.70
2019-03-18T18:29:11.721Z,0.60
2019-03-18T18:34:06.317Z,0.67
2019-03-18T18:39:00.916Z,0.90
2019-03-18T18:43:55.499Z,1.03
2019-03-18T18:48:50.095Z,0.80
2019-03-18T18:53:44.710Z,0.77
2019-03-18T18:58:39.304Z,0.90
2019-03-18T19:03:33.929Z,1.07
2019-03-18T19:08:28.539Z,1.30
2019-03-18T19:13:23.147Z,1.40
2019-03-18T19:18:17.746Z,3.93
2019-03-18T19:23:12.341Z,2.90
2019-03-18T19:28:07.987Z,2.40
2019-03-18T19:33:02.594Z,2.97
2019-03-18T19:37:57.194Z,3.13
2019-03-18T19:42:51.936Z,4.80
2019-03-18T19:47:46.605Z,5.10
2019-03-18T19:52:41.266Z,3.40
2019-03-18T19:57:35.903Z,3.10
2019-03-18T20:02:30.499Z,5.53
2019-03-18T20:07:25.098Z,5.43
2019-03-18T20:12:19.673Z,2.70
2019-03-18T20:17:14.279Z,2.67
2019-03-18T20:22:08.877Z,2.83
2019-03-18T20:27:03.463Z,3.17
2019-03-18T20:31:58.924Z,5.10
2019-03-18T20:36:53.503Z,6.93
2019-03-18T20:41:48.133Z,4.97
2019-03-18T20:46:42.825Z,4.57
2019-03-18T20:51:37.432Z,4.13
2019-03-18T20:56:32.017Z,3.70
2019-03-18T21:01:26.628Z,4.70
2019-03-18T21:06:21.205Z,4.50
2019-03-18T21:11:15.803Z,4.43
2019-03-18T21:16:10.412Z,4.40
2019-03-18T21:21:05.067Z,4.03
2019-03-18T21:25:59.673Z,3.37
2019-03-18T21:30:54.254Z,3.20
2019-03-18T21:35:48.855Z,3.63
2019-03-18T21:40:43.498Z,3.57
2019-03-18T21:45:38.116Z,3.33
2019-03-18T21:50:32.694Z,4.17
2019-03-18T21:55:27.352Z,3.30
2019-03-18T22:00:23.345Z,3.83
2019-03-18T22:05:18.088Z,4.67
2019-03-18T22:10:18.325Z,3.87
2019-03-18T22:15:15.162Z,3.40
2019-03-18T22:20:20.315Z,3.73
2019-03-18T22:25:16.009Z,3.80
2019-03-18T22:30:14.629Z,3.30
2019-03-18T22:35:11.020Z,3.70
2019-03-18T22:40:14.898Z,3.50
2019-03-18T22:45:15.219Z,3.67
2019-03-18T22:50:14.553Z,3.87
2019-03-18T22:55:12.515Z,4.33
2019-03-18T23:00:21.490Z,4.13
2019-03-18T23:05:16.687Z,4.17
2019-03-18T23:10:11.511Z,4.10
2019-03-18T23:15:09.167Z,4.00
2019-03-18T23:20:04.554Z,4.57
2019-03-18T23:25:07.082Z,5.20
2019-03-18T23:29:55.474Z,5.00
2019-03-18T23:34:50.067Z,4.97
2019-03-18T23:39:44.668Z,5.50
2019-03-18T23:44:39.264Z,5.33
2019-03-18T23:49:33.884Z,4.30
2019-03-18T23:54:28.539Z,4.60
2019-03-18T23:59:23.147Z,5.87
